createdAt,value
2023-06-23T00:01:25.400Z,18.29
2023-06-23T00:03:56.088Z,18.26
2023-06-23T00:06:23.983Z,18.25
2023-06-23T00:08:52.308Z,18.22
2023-06-23T00:11:20.469Z,18.20
2023-06-23T00:13:48.430Z,18.13
2023-06-23T00:16:16.209Z,18.02
2023-06-23T00:18:44.059Z,17.96
2023-06-23T00:21:12.121Z,17.92
2023-06-23T00:23:40.631Z,17.90
2023-06-23T00:26:09.263Z,17.87
2023-06-23T00:28:38.172Z,17.86
2023-06-23T00:31:06.140Z,17.82
2023-06-23T00:33:34.288Z,17.80
2023-06-23T00:36:02.131Z,17.71
2023-06-23T00:38:34.987Z,17.67
2023-06-23T00:41:03.722Z,17.65
2023-06-23T00:43:32.273Z,17.64
2023-06-23T00:46:18.288Z,17.69
2023-06-23T00:48:52.141Z,17.68
2023-06-23T00:51:23.824Z,17.63
2023-06-23T00:53:55.045Z,17.64
2023-06-23T00:56:22.946Z,17.60
2023-06-23T00:58:51.971Z,17.46
2023-06-23T01:01:22.998Z,17.37
2023-06-23T01:03:50.972Z,17.31
2023-06-23T01:06:31.632Z,17.27
2023-06-23T01:09:13.477Z,17.23
2023-06-23T01:11:56.972Z,17.23
2023-06-23T01:15:18.590Z,17.23
2023-06-23T01:17:58.798Z,17.18
2023-06-23T01:20:31.721Z,17.16
2023-06-23T01:23:46.879Z,17.08
2023-06-23T01:26:27.211Z,17.00
2023-06-23T01:29:02.449Z,16.94
2023-06-23T01:31:48.346Z,16.90
2023-06-23T01:34:22.403Z,16.85
2023-06-23T01:37:13.004Z,16.79
2023-06-23T01:39:51.558Z,16.69
2023-06-23T01:42:24.505Z,16.70
2023-06-23T01:44:56.405Z,16.73
2023-06-23T01:47:33.302Z,16.72
2023-06-23T01:50:03.981Z,16.76
2023-06-23T01:52:36.797Z,16.72
2023-06-23T01:55:07.442Z,16.71
2023-06-23T01:57:39.072Z,16.69
2023-06-23T02:00:12.843Z,16.62
2023-06-23T02:02:50.388Z,16.54
2023-06-23T02:05:23.243Z,16.51
2023-06-23T02:07:53.892Z,16.49
2023-06-23T02:10:25.732Z,16.48
2023-06-23T02:12:56.101Z,16.55
2023-06-23T02:15:25.020Z,16.53
2023-06-23T02:17:55.975Z,16.48
2023-06-23T02:20:25.608Z,16.45
2023-06-23T02:22:54.693Z,16.44
2023-06-23T02:25:23.763Z,16.47
2023-06-23T02:27:52.520Z,16.43
2023-06-23T02:30:21.139Z,16.43
2023-06-23T02:32:49.457Z,16.44
2023-06-23T02:35:18.633Z,16.36
2023-06-23T02:37:53.559Z,16.31
2023-06-23T02:40:25.972Z,16.27
2023-06-23T02:43:29.548Z,16.25
2023-06-23T02:46:01.939Z,16.29
2023-06-23T02:48:40.513Z,16.32
2023-06-23T02:51:14.694Z,16.29
2023-06-23T02:53:50.073Z,16.22
2023-06-23T02:56:27.228Z,16.17
2023-06-23T02:59:03.894Z,16.16
2023-06-23T03:01:40.332Z,16.12
2023-06-23T03:04:08.264Z,16.04
2023-06-23T03:06:36.927Z,15.98
2023-06-23T03:09:05.006Z,15.93
2023-06-23T03:11:34.889Z,15.90
2023-06-23T03:14:04.082Z,15.95
2023-06-23T03:16:55.207Z,15.92
2023-06-23T03:19:48.171Z,15.90
2023-06-23T03:22:29.666Z,15.85
2023-06-23T03:25:04.495Z,15.84
2023-06-23T03:27:38.474Z,15.80
2023-06-23T03:30:27.699Z,15.78
2023-06-23T03:33:03.281Z,15.78
2023-06-23T03:35:40.987Z,15.81
2023-06-23T03:38:15.770Z,15.84
2023-06-23T03:40:55.847Z,15.84
2023-06-23T03:43:39.219Z,15.81
2023-06-23T03:46:16.416Z,15.78
2023-06-23T03:48:46.689Z,15.72
2023-06-23T03:51:20.562Z,15.74
2023-06-23T03:53:51.723Z,15.81
2023-06-23T03:56:20.644Z,15.88
2023-06-23T03:58:51.808Z,15.92
2023-06-23T04:01:23.955Z,15.92
2023-06-23T04:03:55.442Z,15.90
2023-06-23T04:06:27.047Z,15.96
2023-06-23T04:08:58.780Z,16.01
2023-06-23T04:11:29.678Z,16.07
2023-06-23T04:13:59.085Z,16.02
2023-06-23T04:16:28.532Z,15.87
2023-06-23T04:19:00.808Z,15.78
2023-06-23T04:21:31.202Z,15.82
2023-06-23T04:24:04.513Z,15.87
2023-06-23T04:26:36.855Z,15.84
2023-06-23T04:29:08.568Z,15.94
2023-06-23T04:31:39.173Z,16.09
2023-06-23T04:34:07.088Z,16.07
2023-06-23T04:36:49.154Z,16.03
2023-06-23T04:39:29.276Z,16.01
2023-06-23T04:42:05.058Z,16.04
2023-06-23T04:44:44.216Z,16.11
2023-06-23T04:47:13.604Z,16.23
2023-06-23T04:49:46.687Z,16.36
2023-06-23T04:52:17.839Z,16.53
2023-06-23T04:54:49.102Z,16.62
2023-06-23T04:57:22.895Z,16.81
2023-06-23T04:59:56.650Z,16.87
2023-06-23T05:02:27.067Z,16.98
2023-06-23T05:04:57.917Z,17.03
2023-06-23T05:07:28.317Z,17.06
2023-06-23T05:09:59.993Z,17.10
2023-06-23T05:12:29.938Z,17.15
2023-06-23T05:15:00.613Z,17.31
2023-06-23T05:17:31.142Z,17.47
2023-06-23T05:20:02.188Z,17.51
2023-06-23T05:22:32.789Z,17.47
2023-06-23T05:25:05.633Z,17.48
2023-06-23T05:27:38.336Z,17.51
2023-06-23T05:30:10.004Z,17.52
2023-06-23T05:32:41.822Z,17.57
2023-06-23T05:35:12.188Z,17.64
2023-06-23T05:37:43.425Z,17.71
2023-06-23T05:40:15.424Z,17.77
2023-06-23T05:42:44.276Z,17.85
2023-06-23T05:45:13.651Z,17.97
2023-06-23T05:48:03.170Z,18.07
2023-06-23T05:50:38.602Z,18.12
2023-06-23T05:53:13.121Z,18.22
2023-06-23T05:55:52.582Z,18.31
2023-06-23T05:58:30.108Z,18.36
2023-06-23T06:01:03.960Z,18.46
2023-06-23T06:03:40.817Z,18.54
2023-06-23T06:06:09.496Z,18.65
2023-06-23T06:08:40.521Z,18.72
2023-06-23T06:11:11.673Z,18.90
2023-06-23T06:13:44.571Z,18.98
2023-06-23T06:16:14.189Z,19.02
2023-06-23T06:18:44.430Z,19.06
2023-06-23T06:21:16.430Z,19.15
2023-06-23T06:23:48.070Z,19.23
2023-06-23T06:26:19.801Z,19.29
2023-06-23T06:28:52.753Z,19.36
2023-06-23T06:31:22.679Z,19.41
2023-06-23T06:33:54.242Z,19.48
2023-06-23T06:36:24.927Z,19.52
2023-06-23T06:38:54.151Z,19.64
2023-06-23T06:41:24.128Z,19.76
2023-06-23T06:43:51.999Z,19.89
2023-06-23T06:46:21.155Z,19.99
2023-06-23T06:48:51.222Z,20.08
2023-06-23T06:51:19.949Z,20.15
2023-06-23T06:53:48.114Z,20.15
2023-06-23T06:56:17.344Z,20.21
2023-06-23T06:58:45.304Z,20.29
2023-06-23T07:01:14.222Z,20.38
2023-06-23T07:03:44.136Z,20.48
2023-06-23T07:06:15.126Z,20.59
2023-06-23T07:08:44.115Z,20.69
2023-06-23T07:11:14.278Z,20.83
2023-06-23T07:13:42.306Z,20.97
2023-06-23T07:16:10.273Z,21.03
2023-06-23T07:18:38.149Z,21.15
2023-06-23T07:21:06.035Z,21.23
2023-06-23T07:23:33.876Z,21.30
2023-06-23T07:26:02.012Z,21.29
2023-06-23T07:28:29.864Z,21.23
2023-06-23T07:30:57.757Z,21.22
2023-06-23T07:33:25.622Z,21.25
2023-06-23T07:35:53.852Z,21.24
2023-06-23T07:38:21.657Z,21.33
2023-06-23T07:40:49.505Z,21.40
2023-06-23T07:43:17.231Z,21.49
2023-06-23T07:45:45.406Z,21.61
2023-06-23T07:48:13.235Z,21.68
2023-06-23T07:50:41.094Z,21.79
2023-06-23T07:53:09.660Z,21.94
2023-06-23T07:55:37.415Z,22.08
2023-06-23T07:58:05.216Z,22.19
2023-06-23T08:00:33.424Z,22.24
2023-06-23T08:03:01.473Z,22.29
2023-06-23T08:05:29.681Z,22.48
2023-06-23T08:07:57.413Z,22.65
2023-06-23T08:10:25.206Z,22.76
2023-06-23T08:12:52.965Z,22.89
2023-06-23T08:15:20.785Z,22.95
2023-06-23T08:17:51.561Z,23.00
2023-06-23T08:20:19.640Z,22.99
2023-06-23T08:22:47.970Z,22.98
2023-06-23T08:25:16.000Z,22.96
2023-06-23T08:27:43.819Z,23.03
2023-06-23T08:30:12.495Z,23.12
2023-06-23T08:32:40.557Z,23.16
2023-06-23T08:35:10.620Z,23.35
2023-06-23T08:37:40.732Z,23.41
2023-06-23T08:40:09.758Z,23.43
2023-06-23T08:42:38.169Z,23.41
2023-06-23T08:45:09.044Z,23.52
2023-06-23T08:47:42.348Z,23.59
2023-06-23T08:50:10.550Z,23.57
2023-06-23T08:52:41.644Z,23.58
2023-06-23T08:55:12.162Z,23.60
2023-06-23T08:57:40.278Z,23.59
2023-06-23T09:00:09.071Z,23.68
2023-06-23T09:02:37.170Z,23.69
2023-06-23T09:05:05.535Z,23.64
2023-06-23T09:07:33.318Z,23.68
2023-06-23T09:10:01.481Z,23.68
2023-06-23T09:12:29.280Z,23.69
2023-06-23T09:14:59.720Z,23.75
2023-06-23T09:17:28.449Z,23.81
2023-06-23T09:19:58.022Z,23.88
2023-06-23T09:22:27.158Z,23.95
2023-06-23T09:24:55.011Z,24.04
2023-06-23T09:27:43.539Z,24.05
2023-06-23T09:30:11.974Z,24.13
2023-06-23T09:32:45.710Z,24.15
2023-06-23T09:35:19.559Z,24.10
2023-06-23T09:37:49.063Z,24.05
2023-06-23T09:40:24.717Z,24.00
2023-06-23T09:42:58.618Z,24.01
2023-06-23T09:45:26.806Z,24.11
2023-06-23T09:47:54.729Z,24.17
2023-06-23T09:50:26.865Z,24.24
2023-06-23T09:53:05.503Z,24.23
2023-06-23T09:55:33.385Z,24.39
2023-06-23T09:58:11.756Z,24.52
2023-06-23T10:00:41.017Z,24.69
2023-06-23T10:03:09.274Z,24.85
2023-06-23T10:05:39.619Z,24.92
2023-06-23T10:08:13.038Z,25.00
2023-06-23T10:10:45.637Z,25.04
2023-06-23T10:13:13.693Z,25.05
2023-06-23T10:15:45.412Z,25.03
2023-06-23T10:18:14.839Z,24.94
2023-06-23T10:20:42.850Z,24.93
2023-06-23T10:23:13.718Z,24.91
2023-06-23T10:25:43.205Z,24.86
2023-06-23T10:28:16.108Z,24.87
2023-06-23T10:30:44.843Z,25.02
2023-06-23T10:33:22.557Z,25.09
2023-06-23T10:35:54.092Z,25.09
2023-06-23T10:38:27.536Z,25.17
2023-06-23T10:40:59.965Z,25.22
2023-06-23T10:43:34.821Z,25.30
2023-06-23T10:46:04.437Z,25.40
2023-06-23T10:48:33.246Z,25.38
2023-06-23T10:51:02.925Z,25.32
2023-06-23T10:53:35.143Z,25.31
2023-06-23T10:56:09.959Z,25.35
2023-06-23T10:58:51.484Z,25.23
2023-06-23T11:01:19.500Z,25.12
2023-06-23T11:03:55.397Z,25.17
2023-06-23T11:06:36.914Z,25.17
2023-06-23T11:09:46.261Z,25.18
2023-06-23T11:12:39.861Z,25.32
2023-06-23T11:15:22.011Z,25.43
2023-06-23T11:18:03.796Z,25.40
2023-06-23T11:20:41.502Z,25.34
2023-06-23T11:23:13.862Z,25.46
2023-06-23T11:25:48.653Z,25.55
2023-06-23T11:28:39.704Z,25.54
2023-06-23T11:31:19.386Z,25.54
2023-06-23T11:34:02.091Z,25.67
2023-06-23T11:36:32.897Z,25.74
2023-06-23T11:39:01.901Z,25.71
2023-06-23T11:41:34.805Z,25.64
2023-06-23T11:44:04.491Z,25.67
2023-06-23T11:46:34.243Z,25.58
2023-06-23T11:49:11.235Z,25.58
2023-06-23T11:51:40.154Z,25.55
2023-06-23T11:54:08.736Z,25.52
2023-06-23T11:56:40.490Z,25.47
2023-06-23T11:59:12.114Z,25.53
2023-06-23T12:01:40.028Z,25.59
2023-06-23T12:04:08.108Z,25.78
2023-06-23T12:06:39.044Z,25.80
2023-06-23T12:09:07.646Z,25.80
2023-06-23T12:11:38.880Z,25.88
2023-06-23T12:14:06.705Z,26.00
2023-06-23T12:16:38.853Z,26.21
2023-06-23T12:19:07.900Z,26.33
2023-06-23T12:21:40.978Z,26.49
2023-06-23T12:24:11.748Z,26.50
2023-06-23T12:26:42.921Z,26.54
2023-06-23T12:29:12.500Z,26.55
2023-06-23T12:31:41.136Z,26.63
2023-06-23T12:34:11.239Z,26.73
2023-06-23T12:36:41.097Z,26.81
2023-06-23T12:39:13.825Z,26.84
2023-06-23T12:41:42.020Z,26.78
2023-06-23T12:44:13.139Z,26.76
2023-06-23T12:46:42.369Z,26.90
2023-06-23T12:49:11.570Z,26.99
2023-06-23T12:51:39.978Z,27.10
2023-06-23T12:54:07.771Z,27.26
2023-06-23T12:56:35.622Z,27.41
2023-06-23T12:59:04.111Z,27.57
2023-06-23T13:01:32.577Z,27.63
2023-06-23T13:04:00.639Z,27.61
2023-06-23T13:06:29.334Z,27.61
2023-06-23T13:08:57.337Z,27.58
2023-06-23T13:11:25.199Z,27.59
2023-06-23T13:13:55.526Z,27.61
2023-06-23T13:16:23.351Z,27.76
2023-06-23T13:18:51.060Z,27.88
2023-06-23T13:21:18.826Z,27.92
2023-06-23T13:23:47.135Z,27.98
2023-06-23T13:26:14.977Z,27.90
2023-06-23T13:28:42.766Z,27.91
2023-06-23T13:31:10.800Z,28.05
2023-06-23T13:33:39.304Z,27.96
2023-06-23T13:36:07.498Z,27.95
2023-06-23T13:38:36.939Z,27.98
2023-06-23T13:41:04.803Z,28.00
2023-06-23T13:43:32.584Z,27.99
2023-06-23T13:46:00.474Z,28.02
2023-06-23T13:48:28.307Z,28.03
2023-06-23T13:50:56.077Z,28.09
2023-06-23T13:53:25.281Z,28.23
2023-06-23T13:55:54.092Z,28.30
2023-06-23T13:58:22.529Z,28.41
2023-06-23T14:00:54.179Z,28.53
2023-06-23T14:03:22.364Z,28.65
2023-06-23T14:05:53.483Z,28.80
2023-06-23T14:08:21.862Z,28.88
2023-06-23T14:10:49.814Z,28.89
2023-06-23T14:13:18.075Z,28.78
2023-06-23T14:15:46.083Z,28.62
2023-06-23T14:18:14.358Z,28.65
2023-06-23T14:20:45.600Z,28.66
2023-06-23T14:23:14.458Z,28.68
2023-06-23T14:25:42.287Z,28.70
2023-06-23T14:28:10.254Z,28.74
2023-06-23T14:30:38.224Z,28.74
2023-06-23T14:33:07.631Z,28.67
2023-06-23T14:35:36.265Z,28.67
2023-06-23T14:38:06.695Z,28.75
2023-06-23T14:40:34.828Z,28.80
2023-06-23T14:43:04.549Z,28.86
2023-06-23T14:45:38.494Z,28.99
2023-06-23T14:48:07.802Z,29.07
2023-06-23T14:50:35.808Z,29.01
2023-06-23T14:53:03.747Z,28.95
2023-06-23T14:55:34.216Z,28.88
2023-06-23T14:58:07.125Z,28.97
2023-06-23T15:00:35.696Z,28.77
2023-06-23T15:03:04.225Z,28.48
2023-06-23T15:05:35.523Z,28.38
2023-06-23T15:08:04.474Z,28.42
2023-06-23T15:10:34.576Z,28.24
2023-06-23T15:13:02.591Z,28.01
2023-06-23T15:15:30.719Z,27.91
2023-06-23T15:17:59.179Z,27.87
2023-06-23T15:20:27.544Z,27.92
2023-06-23T15:22:55.588Z,28.06
2023-06-23T15:25:23.556Z,28.06
2023-06-23T15:27:51.352Z,27.92
2023-06-23T15:30:19.435Z,27.82
2023-06-23T15:32:47.624Z,27.84
2023-06-23T15:35:15.637Z,27.90
2023-06-23T15:37:43.590Z,27.93
2023-06-23T15:40:13.216Z,27.93
2023-06-23T15:42:41.371Z,27.98
2023-06-23T15:45:09.962Z,28.10
2023-06-23T15:47:37.958Z,28.12
2023-06-23T15:50:06.510Z,28.30
2023-06-23T15:52:34.291Z,28.34
2023-06-23T15:55:02.195Z,28.30
2023-06-23T15:57:30.113Z,28.28
2023-06-23T15:59:57.993Z,28.21
2023-06-23T16:02:26.823Z,28.08
2023-06-23T16:04:55.210Z,27.87
2023-06-23T16:07:23.385Z,27.93
2023-06-23T16:09:51.224Z,28.08
2023-06-23T16:12:19.024Z,28.20
2023-06-23T16:14:46.818Z,28.35
2023-06-23T16:17:14.739Z,28.36
2023-06-23T16:19:42.671Z,28.38
2023-06-23T16:22:10.432Z,28.46
2023-06-23T16:24:38.278Z,28.42
2023-06-23T16:27:06.669Z,28.35
2023-06-23T16:29:35.468Z,28.21
2023-06-23T16:32:03.853Z,28.01
2023-06-23T16:34:31.668Z,27.84
2023-06-23T16:36:59.541Z,27.80
2023-06-23T16:39:27.379Z,27.79
2023-06-23T16:41:57.646Z,27.79
2023-06-23T16:44:25.918Z,27.78
2023-06-23T16:46:53.888Z,27.72
2023-06-23T16:49:22.072Z,27.74
2023-06-23T16:51:49.899Z,27.79
2023-06-23T16:54:17.659Z,27.78
2023-06-23T16:56:45.444Z,27.76
2023-06-23T16:59:13.264Z,27.66
2023-06-23T17:01:41.284Z,27.57
2023-06-23T17:04:15.132Z,27.53
2023-06-23T17:06:43.998Z,27.55
2023-06-23T17:09:12.860Z,27.54
2023-06-23T17:11:40.759Z,27.61
2023-06-23T17:14:09.753Z,27.66
2023-06-23T17:16:37.631Z,27.74
2023-06-23T17:19:05.398Z,27.82
2023-06-23T17:21:33.191Z,27.81
2023-06-23T17:24:01.022Z,27.78
2023-06-23T17:26:30.303Z,27.66
2023-06-23T17:28:58.680Z,27.61
2023-06-23T17:31:26.585Z,27.53
2023-06-23T17:33:54.653Z,27.47
2023-06-23T17:36:22.494Z,27.47
2023-06-23T17:38:50.569Z,27.40
2023-06-23T17:41:18.617Z,27.41
2023-06-23T17:43:46.405Z,27.48
2023-06-23T17:46:15.422Z,27.44
2023-06-23T17:48:44.689Z,27.34
2023-06-23T17:51:12.970Z,27.26
2023-06-23T17:53:41.940Z,27.25
2023-06-23T17:56:09.712Z,27.17
2023-06-23T17:58:37.588Z,27.04
2023-06-23T18:01:05.559Z,26.91
2023-06-23T18:03:35.990Z,26.76
2023-06-23T18:06:04.177Z,26.66
2023-06-23T18:08:32.016Z,26.66
2023-06-23T18:10:59.842Z,26.58
2023-06-23T18:13:27.672Z,26.46
2023-06-23T18:15:55.841Z,26.36
2023-06-23T18:18:24.948Z,26.22
2023-06-23T18:20:52.835Z,26.07
2023-06-23T18:23:20.661Z,25.98
2023-06-23T18:25:48.536Z,25.93
2023-06-23T18:28:16.431Z,25.91
2023-06-23T18:30:44.447Z,25.83
2023-06-23T18:33:12.323Z,25.75
2023-06-23T18:35:40.084Z,25.69
2023-06-23T18:38:08.006Z,25.74
2023-06-23T18:40:36.641Z,25.82
2023-06-23T18:43:04.550Z,25.91
2023-06-23T18:45:33.666Z,26.03
2023-06-23T18:48:01.583Z,26.10
2023-06-23T18:50:29.381Z,26.16
2023-06-23T18:52:57.353Z,26.13
2023-06-23T18:55:25.149Z,26.02
2023-06-23T18:57:53.160Z,25.85
2023-06-23T19:00:21.171Z,25.77
2023-06-23T19:02:49.288Z,25.72
2023-06-23T19:05:17.613Z,25.68
2023-06-23T19:07:47.457Z,25.68
2023-06-23T19:10:15.696Z,25.62
2023-06-23T19:12:43.500Z,25.50
2023-06-23T19:15:11.448Z,25.31
2023-06-23T19:17:39.290Z,25.13
2023-06-23T19:20:10.756Z,25.00
2023-06-23T19:22:38.776Z,24.88
2023-06-23T19:25:07.438Z,24.80
2023-06-23T19:27:35.276Z,24.67
2023-06-23T19:30:03.175Z,24.55
2023-06-23T19:32:31.048Z,24.48
2023-06-23T19:34:59.004Z,24.40
2023-06-23T19:37:26.877Z,24.26
2023-06-23T19:39:59.934Z,24.13
2023-06-23T19:42:28.948Z,24.03
2023-06-23T19:44:57.309Z,23.89
2023-06-23T19:47:25.217Z,23.76
2023-06-23T19:49:53.023Z,23.68
2023-06-23T19:52:21.004Z,23.58
2023-06-23T19:54:48.890Z,23.42
2023-06-23T19:57:16.696Z,23.29
2023-06-23T19:59:48.156Z,23.18
2023-06-23T20:02:17.277Z,23.06
2023-06-23T20:04:45.054Z,22.97
2023-06-23T20:07:12.955Z,22.92
2023-06-23T20:09:40.857Z,22.85
2023-06-23T20:12:08.906Z,22.72
2023-06-23T20:14:36.703Z,22.63
2023-06-23T20:17:05.256Z,22.50
2023-06-23T20:19:33.139Z,22.37
2023-06-23T20:22:00.894Z,22.25
2023-06-23T20:24:28.723Z,22.15
2023-06-23T20:26:56.581Z,22.03
2023-06-23T20:29:25.419Z,21.94
2023-06-23T20:31:53.341Z,21.86
2023-06-23T20:34:21.661Z,21.79
2023-06-23T20:36:49.654Z,21.72
2023-06-23T20:39:19.787Z,21.67
2023-06-23T20:41:47.603Z,21.60
2023-06-23T20:44:15.376Z,21.54
2023-06-23T20:46:43.844Z,21.49
2023-06-23T20:49:11.651Z,21.44
2023-06-23T20:51:39.392Z,21.38
2023-06-23T20:54:07.162Z,21.37
2023-06-23T20:56:34.916Z,21.34
2023-06-23T20:59:03.210Z,21.33
2023-06-23T21:01:31.083Z,21.30
2023-06-23T21:03:59.304Z,21.27
2023-06-23T21:06:27.110Z,21.17
2023-06-23T21:08:55.101Z,21.09
2023-06-23T21:11:23.146Z,21.02
2023-06-23T21:13:50.979Z,20.97
2023-06-23T21:16:20.031Z,20.90
2023-06-23T21:18:48.528Z,20.81
2023-06-23T21:21:16.326Z,20.73
2023-06-23T21:23:44.727Z,20.64
2023-06-23T21:26:14.080Z,20.65
2023-06-23T21:28:42.547Z,20.64
2023-06-23T21:31:10.618Z,20.57
2023-06-23T21:33:38.500Z,20.52
2023-06-23T21:36:06.383Z,20.47
2023-06-23T21:38:34.247Z,20.45
2023-06-23T21:41:02.137Z,20.40
2023-06-23T21:43:30.455Z,20.34
2023-06-23T21:45:58.596Z,20.27
2023-06-23T21:48:26.343Z,20.24
2023-06-23T21:50:54.158Z,20.20
2023-06-23T21:53:22.007Z,20.17
2023-06-23T21:55:49.741Z,20.13
2023-06-23T21:58:17.477Z,20.12
2023-06-23T22:00:45.260Z,20.09
2023-06-23T22:03:13.185Z,20.04
2023-06-23T22:05:41.124Z,20.01
2023-06-23T22:08:08.988Z,19.98
2023-06-23T22:10:37.145Z,19.91
2023-06-23T22:13:05.266Z,19.86
2023-06-23T22:15:33.287Z,19.82
2023-06-23T22:18:01.298Z,19.80
2023-06-23T22:20:29.127Z,19.77
2023-06-23T22:22:56.938Z,19.74
2023-06-23T22:25:24.716Z,19.72
2023-06-23T22:27:52.652Z,19.70
2023-06-23T22:30:20.446Z,19.67
2023-06-23T22:32:48.414Z,19.61
2023-06-23T22:35:16.309Z,19.58
2023-06-23T22:37:44.034Z,19.54
2023-06-23T22:40:13.041Z,19.51
2023-06-23T22:42:40.906Z,19.49
2023-06-23T22:45:09.181Z,19.44
2023-06-23T22:47:36.976Z,19.41
2023-06-23T22:50:07.745Z,19.38
2023-06-23T22:52:40.208Z,19.35
2023-06-23T22:55:10.980Z,19.30
2023-06-23T22:57:38.824Z,19.28
2023-06-23T23:00:10.534Z,19.24
2023-06-23T23:02:39.261Z,19.20
2023-06-23T23:05:08.400Z,19.17
2023-06-23T23:07:36.465Z,19.15
2023-06-23T23:10:04.842Z,19.11
2023-06-23T23:12:32.749Z,19.08
2023-06-23T23:15:00.481Z,19.06
2023-06-23T23:17:28.254Z,19.03
2023-06-23T23:19:57.292Z,19.01
2023-06-23T23:22:25.385Z,18.98
2023-06-23T23:24:53.837Z,18.96
2023-06-23T23:27:22.322Z,18.95
2023-06-23T23:29:54.998Z,18.94
2023-06-23T23:32:24.470Z,18.91
2023-06-23T23:34:53.123Z,18.88
2023-06-23T23:37:20.928Z,18.87
2023-06-23T23:39:48.800Z,18.84
2023-06-23T23:42:16.547Z,18.80
2023-06-23T23:44:44.386Z,18.80
2023-06-23T23:47:12.407Z,18.77
2023-06-23T23:49:40.282Z,18.75
2023-06-23T23:52:08.547Z,18.71
2023-06-23T23:54:36.360Z,18.66
2023-06-23T23:57:04.791Z,18.68
2023-06-23T23:59:32.839Z,18.64
